createdAt,value
2022-10-31T00:00:45.511Z,6.87
2022-10-31T00:03:13.211Z,9.30
2022-10-31T00:05:42.744Z,9.57
2022-10-31T00:08:11.651Z,7.50
2022-10-31T00:10:39.753Z,9.53
2022-10-31T00:13:07.415Z,7.07
2022-10-31T00:15:35.049Z,7.80
2022-10-31T00:18:02.795Z,9.33
2022-10-31T00:20:30.537Z,8.70
2022-10-31T00:22:59.569Z,8.97
2022-10-31T00:25:29.319Z,9.33
2022-10-31T00:27:57.043Z,10.57
2022-10-31T00:30:24.836Z,13.87
2022-10-31T00:32:52.407Z,11.10
2022-10-31T00:35:19.967Z,8.53
2022-10-31T00:37:47.495Z,9.10
2022-10-31T00:40:15.107Z,7.73
2022-10-31T00:42:44.145Z,10.33
2022-10-31T00:45:12.298Z,8.53
2022-10-31T00:47:39.963Z,7.37
2022-10-31T00:50:07.891Z,7.30
2022-10-31T00:52:35.486Z,8.23
2022-10-31T00:55:03.875Z,9.97
2022-10-31T00:57:31.500Z,9.43
2022-10-31T01:00:00.483Z,10.70
2022-10-31T01:02:29.803Z,8.90
2022-10-31T01:04:57.410Z,17.83
2022-10-31T01:07:25.030Z,7.20
2022-10-31T01:09:52.599Z,7.57
2022-10-31T01:12:21.124Z,7.63
2022-10-31T01:14:48.759Z,7.40
2022-10-31T01:17:20.355Z,7.60
2022-10-31T01:19:48.391Z,10.10
2022-10-31T01:22:15.954Z,7.47
2022-10-31T01:24:43.518Z,7.70
2022-10-31T01:27:11.078Z,7.13
2022-10-31T01:29:38.715Z,7.97
2022-10-31T01:32:06.454Z,8.17
2022-10-31T01:34:35.403Z,7.77
2022-10-31T01:37:03.153Z,8.13
2022-10-31T01:39:30.895Z,10.10
2022-10-31T01:41:58.452Z,6.40
2022-10-31T01:44:44.776Z,7.53
2022-10-31T01:47:16.179Z,9.47
2022-10-31T01:49:47.085Z,6.53
2022-10-31T01:52:18.573Z,7.03
2022-10-31T01:54:48.130Z,6.73
2022-10-31T01:57:16.595Z,9.97
2022-10-31T01:59:45.391Z,6.47
2022-10-31T02:02:13.730Z,5.53
2022-10-31T02:04:41.737Z,9.40
2022-10-31T02:07:12.566Z,9.63
2022-10-31T02:09:41.840Z,7.57
2022-10-31T02:12:11.751Z,7.30
2022-10-31T02:14:39.855Z,6.10
2022-10-31T02:17:07.419Z,6.27
2022-10-31T02:19:37.775Z,10.00
2022-10-31T02:22:11.484Z,8.60
2022-10-31T02:24:54.695Z,5.83
2022-10-31T02:27:39.303Z,7.73
2022-10-31T02:30:09.090Z,5.40
2022-10-31T02:32:44.954Z,7.67
2022-10-31T02:35:16.499Z,7.00
2022-10-31T02:37:49.211Z,5.90
2022-10-31T02:40:19.748Z,6.80
2022-10-31T02:43:08.842Z,7.07
2022-10-31T02:45:41.065Z,8.13
2022-10-31T02:48:11.821Z,7.20
2022-10-31T02:50:41.278Z,9.23
2022-10-31T02:53:11.031Z,10.37
2022-10-31T02:55:53.169Z,8.80
2022-10-31T02:58:23.732Z,13.10
2022-10-31T03:01:02.808Z,11.20
2022-10-31T03:03:35.975Z,15.83
2022-10-31T03:06:06.025Z,16.23
2022-10-31T03:08:36.874Z,18.23
2022-10-31T03:11:07.105Z,16.73
2022-10-31T03:13:37.747Z,29.40
2022-10-31T03:16:09.197Z,22.33
2022-10-31T03:18:40.114Z,19.23
2022-10-31T03:21:09.785Z,10.23
2022-10-31T03:23:37.931Z,17.13
2022-10-31T03:26:07.316Z,11.40
2022-10-31T03:28:37.645Z,12.90
2022-10-31T03:31:07.445Z,14.23
2022-10-31T03:33:40.558Z,10.63
2022-10-31T03:36:10.543Z,9.80
2022-10-31T03:38:38.891Z,8.50
2022-10-31T03:41:07.901Z,7.20
2022-10-31T03:43:38.457Z,6.27
2022-10-31T03:46:06.512Z,8.63
2022-10-31T03:48:34.305Z,7.27
2022-10-31T03:51:07.566Z,7.23
2022-10-31T03:53:36.937Z,8.83
2022-10-31T03:56:09.583Z,6.77
2022-10-31T03:58:40.236Z,6.10
2022-10-31T04:01:09.139Z,6.47
2022-10-31T04:03:38.358Z,6.67
2022-10-31T04:06:10.920Z,11.10
2022-10-31T04:08:42.175Z,9.33
2022-10-31T04:11:13.670Z,9.23
2022-10-31T04:13:44.265Z,9.30
2022-10-31T04:16:17.340Z,8.20
2022-10-31T04:18:45.827Z,10.97
2022-10-31T04:21:14.778Z,10.07
2022-10-31T04:23:42.344Z,12.00
2022-10-31T04:26:24.800Z,8.53
2022-10-31T04:28:53.027Z,8.70
2022-10-31T04:31:20.558Z,10.40
2022-10-31T04:33:50.124Z,14.97
2022-10-31T04:36:20.219Z,11.33
2022-10-31T04:38:49.398Z,10.17
2022-10-31T04:41:35.123Z,12.87
2022-10-31T04:44:05.532Z,15.83
2022-10-31T04:46:33.698Z,13.30
2022-10-31T04:49:01.482Z,11.37
2022-10-31T04:51:30.467Z,15.77
2022-10-31T04:53:58.223Z,11.63
2022-10-31T04:56:28.741Z,7.47
2022-10-31T04:58:59.902Z,9.13
2022-10-31T05:01:30.254Z,11.30
2022-10-31T05:04:00.015Z,10.43
2022-10-31T05:06:31.205Z,14.23
2022-10-31T05:08:58.853Z,22.37
2022-10-31T05:11:26.473Z,9.60
2022-10-31T05:13:56.947Z,8.83
2022-10-31T05:16:56.939Z,7.43
2022-10-31T05:19:43.162Z,8.73
2022-10-31T05:22:47.034Z,9.57
2022-10-31T05:25:14.686Z,11.53
2022-10-31T05:27:43.127Z,12.80
2022-10-31T05:30:11.768Z,12.47
2022-10-31T05:32:39.947Z,8.37
2022-10-31T05:35:27.227Z,16.53
2022-10-31T05:38:26.788Z,21.80
2022-10-31T05:40:58.478Z,7.87
2022-10-31T05:43:26.678Z,10.23
2022-10-31T05:45:54.751Z,8.20
2022-10-31T05:48:42.242Z,14.53
2022-10-31T05:51:36.033Z,11.37
2022-10-31T05:54:06.511Z,11.47
2022-10-31T05:56:34.108Z,8.10
2022-10-31T05:59:01.914Z,13.73
2022-10-31T06:01:29.574Z,12.97
2022-10-31T06:04:00.326Z,18.17
2022-10-31T06:06:28.099Z,8.30
2022-10-31T06:08:55.789Z,6.20
2022-10-31T06:11:25.687Z,6.80
2022-10-31T06:14:05.398Z,6.63
2022-10-31T06:16:40.411Z,6.77
2022-10-31T06:19:26.623Z,6.77
2022-10-31T06:21:54.372Z,7.60
2022-10-31T06:24:21.929Z,7.57
2022-10-31T06:26:56.803Z,7.80
2022-10-31T06:29:24.426Z,7.80
2022-10-31T06:32:05.335Z,6.37
2022-10-31T06:34:37.624Z,5.60
2022-10-31T06:37:05.243Z,6.50
2022-10-31T06:39:33.306Z,6.00
2022-10-31T06:42:02.977Z,5.90
2022-10-31T06:44:31.618Z,5.83
2022-10-31T06:46:59.181Z,5.80
2022-10-31T06:50:02.081Z,7.33
2022-10-31T06:52:30.128Z,5.90
2022-10-31T06:54:58.032Z,6.30
2022-10-31T06:57:27.016Z,14.10
2022-10-31T06:59:54.578Z,18.90
2022-10-31T07:02:55.234Z,16.00
2022-10-31T07:05:24.639Z,14.13
2022-10-31T07:07:54.184Z,8.87
2022-10-31T07:10:23.295Z,18.57
2022-10-31T07:13:02.244Z,12.80
2022-10-31T07:15:37.283Z,15.80
2022-10-31T07:18:05.471Z,8.37
2022-10-31T07:20:34.909Z,8.03
2022-10-31T07:23:04.361Z,6.83
2022-10-31T07:25:33.543Z,6.73
2022-10-31T07:28:20.601Z,9.07
2022-10-31T07:30:51.957Z,8.13
2022-10-31T07:33:21.413Z,16.67
2022-10-31T07:36:12.200Z,7.43
2022-10-31T07:38:43.455Z,14.17
2022-10-31T07:41:11.063Z,8.60
2022-10-31T07:43:44.316Z,7.80
2022-10-31T07:46:17.962Z,9.57
2022-10-31T07:48:51.315Z,7.50
2022-10-31T07:51:38.300Z,6.70
2022-10-31T07:54:15.938Z,7.67
2022-10-31T07:56:43.648Z,11.43
2022-10-31T07:59:12.625Z,7.27
2022-10-31T08:01:40.914Z,13.47
2022-10-31T08:04:27.268Z,7.27
2022-10-31T08:07:13.546Z,10.90
2022-10-31T08:09:45.864Z,14.70
2022-10-31T08:12:20.419Z,9.27
2022-10-31T08:14:49.367Z,11.40
2022-10-31T08:17:19.315Z,12.60
2022-10-31T08:19:55.319Z,9.50
2022-10-31T08:22:28.341Z,13.43
2022-10-31T08:24:55.923Z,9.33
2022-10-31T08:27:23.642Z,12.13
2022-10-31T08:29:52.567Z,8.00
2022-10-31T08:32:20.156Z,13.10
2022-10-31T08:34:53.779Z,15.90
2022-10-31T08:37:39.627Z,11.50
2022-10-31T08:40:08.450Z,9.80
2022-10-31T08:42:37.091Z,10.73
2022-10-31T08:45:06.578Z,13.70
2022-10-31T08:47:34.716Z,13.40
2022-10-31T08:50:02.650Z,14.83
2022-10-31T08:52:58.755Z,13.33
2022-10-31T08:55:17.950Z,13.10
2022-10-31T08:58:18.804Z,17.80
2022-10-31T09:00:52.881Z,13.87
2022-10-31T09:03:23.391Z,17.40
2022-10-31T09:05:51.724Z,18.70
2022-10-31T09:08:19.378Z,16.87
2022-10-31T09:10:48.641Z,12.93
2022-10-31T09:13:22.874Z,13.27
2022-10-31T09:16:11.807Z,12.67
2022-10-31T09:18:39.607Z,12.17
2022-10-31T09:21:07.191Z,13.27
2022-10-31T09:23:34.887Z,17.57
2022-10-31T09:26:03.321Z,13.13
2022-10-31T09:28:30.878Z,21.87
2022-10-31T09:31:02.434Z,13.60
2022-10-31T09:33:50.181Z,11.90
2022-10-31T09:36:33.021Z,12.03
2022-10-31T09:39:00.719Z,12.10
2022-10-31T09:41:32.377Z,12.53
2022-10-31T09:44:02.831Z,17.23
2022-10-31T09:46:34.299Z,17.17
2022-10-31T09:49:13.596Z,21.40
2022-10-31T09:51:53.135Z,17.40
2022-10-31T09:54:31.226Z,18.53
2022-10-31T09:57:01.054Z,18.23
2022-10-31T09:59:32.271Z,16.20
2022-10-31T10:02:02.892Z,15.00
2022-10-31T10:04:41.571Z,17.30
2022-10-31T10:07:18.938Z,15.43
2022-10-31T10:09:46.627Z,14.83
2022-10-31T10:12:39.230Z,13.30
2022-10-31T10:15:21.846Z,13.63
2022-10-31T10:17:53.302Z,13.67
2022-10-31T10:20:28.710Z,20.50
2022-10-31T10:23:00.695Z,16.03
2022-10-31T10:25:33.378Z,17.57
2022-10-31T10:28:07.327Z,17.83
2022-10-31T10:30:37.678Z,21.43
2022-10-31T10:33:07.057Z,17.23
2022-10-31T10:35:37.095Z,17.53
2022-10-31T10:38:10.578Z,15.40
2022-10-31T10:40:39.067Z,15.93
2022-10-31T10:43:23.942Z,14.07
2022-10-31T10:46:11.867Z,14.20
2022-10-31T10:48:47.138Z,13.63
2022-10-31T10:51:46.286Z,13.33
2022-10-31T10:54:19.419Z,12.43
2022-10-31T10:56:51.274Z,14.40
2022-10-31T10:59:20.444Z,14.63
2022-10-31T11:01:50.114Z,19.40
2022-10-31T11:04:25.947Z,17.73
2022-10-31T11:07:02.170Z,18.50
2022-10-31T11:09:30.054Z,16.30
2022-10-31T11:11:57.820Z,16.97
2022-10-31T11:14:25.622Z,17.10
2022-10-31T11:16:55.918Z,17.63
2022-10-31T11:19:24.791Z,17.20
2022-10-31T11:21:54.315Z,17.57
2022-10-31T11:24:23.992Z,15.97
2022-10-31T11:26:52.351Z,17.07
2022-10-31T11:29:22.439Z,15.33
2022-10-31T11:31:52.378Z,14.30
2022-10-31T11:34:30.184Z,13.87
2022-10-31T11:37:00.973Z,18.23
2022-10-31T11:39:30.142Z,16.00
2022-10-31T11:42:08.533Z,15.20
2022-10-31T11:44:36.699Z,20.40
2022-10-31T11:47:06.538Z,15.77
2022-10-31T11:49:36.977Z,15.37
2022-10-31T11:52:06.998Z,17.37
2022-10-31T11:54:38.570Z,16.47
2022-10-31T11:57:06.174Z,18.17
2022-10-31T11:59:34.186Z,17.10
2022-10-31T12:02:02.925Z,18.63
2022-10-31T12:04:33.462Z,17.97
2022-10-31T12:07:01.585Z,19.83
2022-10-31T12:09:30.856Z,18.03
2022-10-31T12:12:04.987Z,18.00
2022-10-31T12:14:36.979Z,18.20
2022-10-31T12:17:07.599Z,21.10
2022-10-31T12:19:39.691Z,20.03
2022-10-31T12:22:10.575Z,22.83
2022-10-31T12:24:45.643Z,27.47
2022-10-31T12:27:21.486Z,26.60
2022-10-31T12:30:00.373Z,19.30
2022-10-31T12:32:33.833Z,17.93
2022-10-31T12:35:10.483Z,23.67
2022-10-31T12:37:43.714Z,22.53
2022-10-31T12:40:22.912Z,18.97
2022-10-31T12:42:56.563Z,16.70
2022-10-31T12:45:31.258Z,17.60
2022-10-31T12:48:06.860Z,18.80
2022-10-31T12:50:41.711Z,21.57
2022-10-31T12:55:52.399Z,13.70
2022-10-31T12:58:24.124Z,14.20
2022-10-31T13:00:57.768Z,14.20
2022-10-31T13:03:29.143Z,16.60
2022-10-31T13:05:58.339Z,14.80
2022-10-31T13:08:30.666Z,13.20
2022-10-31T13:11:03.540Z,13.90
2022-10-31T13:13:36.664Z,14.23
2022-10-31T13:16:06.994Z,13.60
2022-10-31T13:18:37.039Z,13.30
2022-10-31T13:21:07.835Z,12.97
2022-10-31T13:23:50.344Z,12.80
2022-10-31T13:26:22.863Z,12.23
2022-10-31T13:28:56.703Z,12.53
2022-10-31T13:31:24.395Z,15.07
2022-10-31T13:33:55.139Z,15.60
2022-10-31T13:36:26.912Z,13.53
2022-10-31T13:38:56.176Z,16.40
2022-10-31T13:41:36.728Z,16.90
2022-10-31T13:44:12.182Z,17.30
2022-10-31T13:46:40.615Z,19.37
2022-10-31T13:49:25.251Z,16.53
2022-10-31T13:51:53.511Z,17.87
2022-10-31T13:54:22.635Z,16.20
2022-10-31T13:56:51.101Z,18.67
2022-10-31T13:59:24.130Z,16.90
2022-10-31T14:01:53.344Z,16.13
2022-10-31T14:04:25.312Z,15.80
2022-10-31T14:06:59.248Z,16.07
2022-10-31T14:09:31.893Z,17.47
2022-10-31T14:12:01.915Z,16.70
2022-10-31T14:14:34.492Z,15.73
2022-10-31T14:17:02.109Z,14.37
2022-10-31T14:19:29.768Z,13.40
2022-10-31T14:21:57.359Z,15.50
2022-10-31T14:24:35.391Z,13.93
2022-10-31T14:27:03.984Z,13.60
2022-10-31T14:29:33.375Z,15.80
2022-10-31T14:32:03.774Z,15.63
2022-10-31T14:34:35.422Z,14.13
2022-10-31T14:37:20.620Z,14.73
2022-10-31T14:39:54.288Z,15.17
2022-10-31T14:42:28.631Z,18.00
2022-10-31T14:45:08.860Z,16.53
2022-10-31T14:47:41.267Z,15.47
2022-10-31T14:50:20.356Z,15.03
2022-10-31T14:52:50.920Z,18.60
2022-10-31T14:55:19.740Z,16.03
2022-10-31T14:57:49.996Z,16.33
2022-10-31T15:00:19.812Z,15.07
2022-10-31T15:02:51.686Z,19.63
2022-10-31T15:05:19.526Z,14.70
2022-10-31T15:07:53.660Z,14.87
2022-10-31T15:10:22.635Z,16.17
2022-10-31T15:12:50.294Z,14.77
2022-10-31T15:15:21.627Z,13.03
2022-10-31T15:17:51.406Z,14.20
2022-10-31T15:20:20.200Z,16.23
2022-10-31T15:22:47.968Z,14.87
2022-10-31T15:25:19.073Z,18.93
2022-10-31T15:27:47.480Z,16.27
2022-10-31T15:30:21.247Z,14.83
2022-10-31T15:32:57.586Z,14.83
2022-10-31T15:35:26.871Z,17.97
2022-10-31T15:37:54.701Z,16.23
2022-10-31T15:40:24.848Z,15.43
2022-10-31T15:42:53.826Z,14.23
2022-10-31T15:45:24.701Z,15.33
2022-10-31T15:47:55.879Z,20.13
2022-10-31T15:50:25.319Z,14.00
2022-10-31T15:52:53.127Z,13.87
2022-10-31T15:55:21.769Z,14.30
2022-10-31T15:57:50.614Z,15.43
2022-10-31T16:00:28.269Z,18.47
2022-10-31T16:03:08.574Z,16.30
2022-10-31T16:05:37.457Z,14.50
2022-10-31T16:08:05.223Z,15.63
2022-10-31T16:10:35.229Z,14.60
2022-10-31T16:13:03.976Z,15.37
2022-10-31T16:15:34.337Z,16.60
2022-10-31T16:18:01.982Z,15.10
2022-10-31T16:20:32.866Z,15.17
2022-10-31T16:23:01.337Z,14.07
2022-10-31T16:25:30.135Z,15.47
2022-10-31T16:28:01.538Z,14.77
2022-10-31T16:30:41.713Z,17.23
2022-10-31T16:33:23.151Z,15.90
2022-10-31T16:35:55.781Z,17.27
2022-10-31T16:38:24.053Z,13.70
2022-10-31T16:40:52.325Z,15.53
2022-10-31T16:43:20.946Z,14.00
2022-10-31T16:45:50.679Z,14.20
2022-10-31T16:48:20.150Z,12.87
2022-10-31T16:50:48.403Z,14.10
2022-10-31T16:53:16.726Z,12.67
2022-10-31T16:55:46.855Z,14.80
2022-10-31T16:58:19.451Z,11.53
2022-10-31T17:00:47.550Z,14.63
2022-10-31T17:03:16.523Z,13.77
2022-10-31T17:05:44.206Z,17.43
2022-10-31T17:08:11.751Z,13.90
2022-10-31T17:10:39.916Z,13.00
2022-10-31T17:13:09.135Z,14.03
2022-10-31T17:15:39.627Z,16.10
2022-10-31T17:18:07.251Z,13.73
2022-10-31T17:20:36.399Z,18.13
2022-10-31T17:23:04.286Z,16.63
2022-10-31T17:25:32.847Z,17.40
2022-10-31T17:28:00.454Z,17.40
2022-10-31T17:30:28.257Z,18.57
2022-10-31T17:32:56.102Z,16.97
2022-10-31T17:35:23.851Z,21.53
2022-10-31T17:37:52.759Z,26.63
2022-10-31T17:40:21.728Z,21.90
2022-10-31T17:42:50.330Z,21.33
2022-10-31T17:45:17.900Z,19.23
2022-10-31T17:47:47.278Z,19.70
2022-10-31T17:50:14.999Z,18.73
2022-10-31T17:52:42.567Z,17.67
2022-10-31T17:55:11.814Z,15.57
2022-10-31T17:57:39.683Z,17.77
2022-10-31T18:00:08.720Z,17.67
2022-10-31T18:02:39.171Z,15.33
2022-10-31T18:05:07.660Z,16.10
2022-10-31T18:07:35.470Z,15.30
2022-10-31T18:10:03.026Z,15.47
2022-10-31T18:12:32.306Z,15.67
2022-10-31T18:15:00.260Z,17.20
2022-10-31T18:17:27.852Z,16.93
2022-10-31T18:19:55.496Z,15.57
2022-10-31T18:22:23.157Z,19.13
2022-10-31T18:24:50.715Z,17.73
2022-10-31T18:27:18.333Z,19.50
2022-10-31T18:29:47.278Z,18.60
2022-10-31T18:32:14.856Z,18.23
2022-10-31T18:34:42.419Z,18.57
2022-10-31T18:37:10.022Z,16.70
2022-10-31T18:39:37.586Z,19.43
2022-10-31T18:42:05.285Z,16.20
2022-10-31T18:44:32.823Z,18.93
2022-10-31T18:47:01.715Z,16.13
2022-10-31T18:49:32.617Z,16.30
2022-10-31T18:52:00.635Z,17.40
2022-10-31T18:54:28.194Z,17.97
2022-10-31T18:56:55.938Z,19.17
2022-10-31T18:59:23.533Z,19.13
2022-10-31T19:01:51.188Z,18.50
2022-10-31T19:04:20.165Z,19.93
2022-10-31T19:06:47.724Z,18.83
2022-10-31T19:09:15.275Z,16.63
2022-10-31T19:11:42.862Z,22.37
2022-10-31T19:14:11.077Z,22.83
2022-10-31T19:16:38.635Z,23.33
2022-10-31T19:19:06.226Z,23.57
2022-10-31T19:21:35.205Z,23.30
2022-10-31T19:24:03.002Z,24.87
2022-10-31T19:26:30.570Z,26.67
2022-10-31T19:28:58.179Z,33.37
2022-10-31T19:31:25.740Z,26.60
2022-10-31T19:33:53.370Z,25.17
2022-10-31T19:36:21.506Z,26.10
2022-10-31T19:38:50.910Z,29.10
2022-10-31T19:41:19.298Z,25.13
2022-10-31T19:43:46.895Z,31.60
2022-10-31T19:46:22.461Z,24.13
2022-10-31T19:48:55.810Z,27.03
2022-10-31T19:51:23.635Z,22.03
2022-10-31T19:53:52.610Z,21.30
2022-10-31T19:56:21.127Z,23.07
2022-10-31T19:58:48.774Z,22.40
2022-10-31T20:01:17.042Z,19.63
2022-10-31T20:03:45.528Z,20.87
2022-10-31T20:06:16.124Z,26.57
2022-10-31T20:08:43.712Z,24.93
2022-10-31T20:11:12.625Z,23.77
2022-10-31T20:13:40.171Z,29.10
2022-10-31T20:16:09.079Z,31.17
2022-10-31T20:18:36.968Z,27.40
2022-10-31T20:21:05.305Z,29.23
2022-10-31T20:23:33.112Z,28.70
2022-10-31T20:26:00.736Z,25.47
2022-10-31T20:28:30.382Z,25.27
2022-10-31T20:30:57.967Z,25.00
2022-10-31T20:33:25.602Z,21.97
2022-10-31T20:35:53.183Z,24.80
2022-10-31T20:38:20.743Z,22.47
2022-10-31T20:40:48.307Z,21.40
2022-10-31T20:43:16.794Z,22.13
2022-10-31T20:45:45.720Z,20.80
2022-10-31T20:48:13.530Z,19.90
2022-10-31T20:50:41.483Z,22.90
2022-10-31T20:53:09.063Z,23.93
2022-10-31T20:55:36.648Z,22.13
2022-10-31T20:58:04.211Z,24.87
2022-10-31T21:00:31.756Z,21.83
2022-10-31T21:03:01.007Z,20.03
2022-10-31T21:05:28.853Z,23.17
2022-10-31T21:07:56.388Z,22.33
2022-10-31T21:10:23.949Z,20.87
2022-10-31T21:12:51.518Z,21.90
2022-10-31T21:15:19.087Z,20.97
2022-10-31T21:17:46.646Z,20.43
2022-10-31T21:20:15.569Z,19.07
2022-10-31T21:22:43.099Z,19.13
2022-10-31T21:25:10.674Z,20.77
2022-10-31T21:27:38.235Z,19.80
2022-10-31T21:30:06.254Z,26.80
2022-10-31T21:32:33.802Z,24.13
2022-10-31T21:35:01.570Z,23.67
2022-10-31T21:37:30.501Z,22.53
2022-10-31T21:39:58.199Z,21.50
2022-10-31T21:42:25.754Z,24.50
2022-10-31T21:44:53.329Z,23.23
2022-10-31T21:47:20.880Z,21.43
2022-10-31T21:49:48.461Z,23.70
2022-10-31T21:52:16.036Z,21.60
2022-10-31T21:54:43.954Z,19.90
2022-10-31T21:57:11.571Z,21.40
2022-10-31T21:59:41.194Z,21.67
2022-10-31T22:02:10.132Z,20.73
2022-10-31T22:04:37.743Z,20.73
2022-10-31T22:07:05.295Z,20.83
2022-10-31T22:09:32.866Z,20.57
2022-10-31T22:12:06.500Z,19.23
2022-10-31T22:14:34.076Z,18.30
2022-10-31T22:17:01.755Z,18.37
2022-10-31T22:19:29.296Z,24.83
2022-10-31T22:21:56.872Z,22.67
2022-10-31T22:24:24.455Z,19.23
2022-10-31T22:26:51.989Z,22.33
2022-10-31T22:29:22.880Z,20.47
2022-10-31T22:31:57.184Z,19.67
2022-10-31T22:34:27.242Z,20.60
2022-10-31T22:36:55.178Z,19.03
2022-10-31T22:39:22.729Z,18.23
2022-10-31T22:41:50.351Z,17.30
2022-10-31T22:44:17.912Z,19.37
2022-10-31T22:46:46.805Z,20.87
2022-10-31T22:49:15.568Z,17.27
2022-10-31T22:51:44.005Z,17.67
2022-10-31T22:54:13.458Z,22.07
2022-10-31T22:56:41.051Z,18.17
2022-10-31T22:59:08.794Z,19.53
2022-10-31T23:01:36.534Z,19.50
2022-10-31T23:04:05.627Z,18.70
2022-10-31T23:06:33.646Z,21.33
2022-10-31T23:09:01.646Z,19.73
2022-10-31T23:11:32.182Z,23.33
2022-10-31T23:14:13.659Z,21.77
2022-10-31T23:16:45.442Z,21.73
2022-10-31T23:19:15.461Z,26.57
2022-10-31T23:22:00.523Z,28.10
2022-10-31T23:24:33.695Z,34.33
2022-10-31T23:27:10.028Z,28.00
2022-10-31T23:29:39.099Z,26.53
2022-10-31T23:32:07.509Z,21.23
2022-10-31T23:34:36.798Z,22.23
2022-10-31T23:37:04.498Z,21.33
2022-10-31T23:39:32.125Z,21.67
2022-10-31T23:41:59.684Z,20.27
2022-10-31T23:44:27.248Z,20.43
2022-10-31T23:46:55.023Z,19.93
2022-10-31T23:49:22.565Z,19.70
2022-10-31T23:51:51.482Z,20.20
2022-10-31T23:54:19.102Z,19.20
2022-10-31T23:56:46.662Z,20.00
2022-10-31T23:59:14.227Z,19.03
